Time;durP1;ratioP1;P1;durP2;ratioP2;P2;SDS_P1;SDS_P2;PMS_P1;PMS_P2;Temp;Humidity;BMP_temperature;BMP_pressure;BME280_temperature;BME280_humidity;BME280_pressure;Samples;Min_cycle;Max_cycle;Signal;HPM_P1;HPM_P2
2022/03/03 00:01:46;;;;;;;23.63;12.77;;;-0.60;99.90;;;;;;5052870;28;20557;-62
2022/03/03 00:04:12;;;;;;;20.27;11.02;;;-0.60;99.90;;;;;;5053073;28;20221;-62
2022/03/03 00:06:38;;;;;;;19.20;10.43;;;-0.60;99.90;;;;;;5052785;28;20204;-62
2022/03/03 00:09:05;;;;;;;23.70;11.30;;;-0.70;99.90;;;;;;5053423;28;20628;-62
2022/03/03 00:11:31;;;;;;;21.60;10.30;;;-0.70;99.90;;;;;;5049195;28;20182;-62
2022/03/03 00:13:58;;;;;;;19.23;10.43;;;-0.70;99.90;;;;;;5052879;28;20178;-62
2022/03/03 00:16:24;;;;;;;20.43;10.63;;;-0.80;99.90;;;;;;5053178;28;20209;-62
2022/03/03 00:18:50;;;;;;;20.17;10.40;;;-0.80;99.90;;;;;;5051526;28;20185;-62
2022/03/03 00:21:16;;;;;;;20.23;10.47;;;-0.80;99.90;;;;;;5052320;28;20174;-62
2022/03/03 00:23:41;;;;;;;21.27;11.18;;;-0.80;99.90;;;;;;5052408;28;20186;-62
2022/03/03 00:26:07;;;;;;;20.02;10.52;;;-0.80;99.90;;;;;;5052470;28;20221;-62
2022/03/03 00:28:33;;;;;;;20.80;10.73;;;-0.80;99.90;;;;;;5052682;28;20181;-62
2022/03/03 00:30:58;;;;;;;19.33;10.33;;;-0.90;99.90;;;;;;5052659;28;20178;-62
2022/03/03 00:33:24;;;;;;;19.80;10.63;;;-0.80;99.90;;;;;;5052373;28;20189;-62
2022/03/03 00:35:49;;;;;;;18.70;10.07;;;-0.90;99.90;;;;;;5052454;28;20217;-62
2022/03/03 00:38:16;;;;;;;19.48;10.32;;;-0.90;99.90;;;;;;5052279;28;20185;-62
2022/03/03 00:40:41;;;;;;;21.15;11.35;;;-0.90;99.90;;;;;;5051972;28;20181;-62
2022/03/03 00:43:08;;;;;;;18.15;10.45;;;-0.90;99.90;;;;;;5052696;28;20709;-62
2022/03/03 00:45:34;;;;;;;17.73;9.67;;;-0.90;99.90;;;;;;5052416;28;20633;-62
2022/03/03 00:48:00;;;;;;;18.00;10.13;;;-1.00;99.90;;;;;;5052383;28;20192;-62
2022/03/03 00:50:25;;;;;;;19.30;10.15;;;-1.00;99.90;;;;;;5052188;28;20181;-62
2022/03/03 00:52:51;;;;;;;18.07;10.20;;;-1.00;99.90;;;;;;5051806;28;20260;-62
2022/03/03 00:55:17;;;;;;;19.03;10.97;;;-1.00;99.90;;;;;;5049860;28;20193;-62
2022/03/03 00:57:42;;;;;;;19.93;11.33;;;-1.00;99.90;;;;;;5052057;28;20588;-62
2022/03/03 01:00:09;;;;;;;22.03;11.27;;;-1.00;99.90;;;;;;5051707;28;20545;-62
2022/03/03 01:02:35;;;;;;;20.97;11.10;;;-1.10;99.90;;;;;;5050860;28;20247;-62
2022/03/03 01:05:01;;;;;;;20.60;11.23;;;-1.10;99.90;;;;;;5051942;28;20189;-62
2022/03/03 01:07:27;;;;;;;19.60;10.80;;;-1.00;99.90;;;;;;5051434;28;20699;-63
2022/03/03 01:09:52;;;;;;;21.03;11.40;;;-1.00;99.90;;;;;;5051646;28;20566;-62
2022/03/03 01:12:18;;;;;;;20.27;11.00;;;-1.10;99.90;;;;;;5051648;28;20189;-62
2022/03/03 01:14:43;;;;;;;20.07;11.17;;;-1.00;99.90;;;;;;5051935;28;20189;-62
2022/03/03 01:17:09;;;;;;;22.03;11.53;;;-1.10;99.90;;;;;;5051475;28;20260;-62
2022/03/03 01:19:35;;;;;;;19.57;11.03;;;-1.10;99.90;;;;;;5051415;28;20185;-61
2022/03/03 01:22:00;;;;;;;19.47;11.00;;;-1.10;99.90;;;;;;5051720;28;20189;-62
2022/03/03 01:24:26;;;;;;;18.00;10.40;;;-1.10;99.90;;;;;;5053785;28;20189;-63
2022/03/03 01:26:52;;;;;;;21.67;10.43;;;-1.10;99.90;;;;;;5053438;28;20196;-62
2022/03/03 01:29:18;;;;;;;19.70;10.37;;;-1.10;99.90;;;;;;5051463;28;20174;-62
2022/03/03 01:31:43;;;;;;;20.07;10.53;;;-1.10;99.90;;;;;;5051910;28;20192;-62
2022/03/03 01:34:10;;;;;;;21.80;11.10;;;-1.10;99.90;;;;;;5051528;28;20545;-62
2022/03/03 01:36:36;;;;;;;22.70;10.60;;;-1.20;99.90;;;;;;5051146;28;20236;-62
2022/03/03 01:39:03;;;;;;;19.33;10.83;;;-1.20;99.90;;;;;;5051203;28;20177;-62
2022/03/03 01:41:29;;;;;;;19.87;10.63;;;-1.20;99.90;;;;;;5051252;28;20190;-62
2022/03/03 01:43:55;;;;;;;21.17;10.77;;;-1.20;99.90;;;;;;5051216;28;20231;-62
2022/03/03 01:46:20;;;;;;;23.77;10.90;;;-1.20;99.90;;;;;;5051642;28;20196;-62
2022/03/03 01:48:46;;;;;;;22.80;11.60;;;-1.20;99.90;;;;;;5051728;28;20192;-62
2022/03/03 01:51:12;;;;;;;18.77;10.43;;;-1.20;99.90;;;;;;5051632;28;20197;-62
2022/03/03 01:53:39;;;;;;;20.50;11.53;;;-1.30;99.90;;;;;;5050930;28;20653;-62
2022/03/03 01:56:06;;;;;;;19.47;10.93;;;-1.30;99.90;;;;;;5051028;28;20300;-62
2022/03/03 01:58:32;;;;;;;21.50;10.80;;;-1.30;99.90;;;;;;5051309;28;20188;-62
2022/03/03 02:00:58;;;;;;;22.37;11.07;;;-1.30;99.90;;;;;;5051081;28;20496;-62
2022/03/03 02:03:23;;;;;;;20.00;10.13;;;-1.30;99.90;;;;;;5051187;28;20468;-62
2022/03/03 02:05:49;;;;;;;22.80;11.23;;;-1.30;99.90;;;;;;5050819;28;20185;-62
2022/03/03 02:08:15;;;;;;;23.70;11.23;;;-1.30;99.90;;;;;;5051152;28;20181;-62
2022/03/03 02:10:40;;;;;;;20.77;11.03;;;-1.30;99.90;;;;;;5051041;28;20193;-62
2022/03/03 02:13:07;;;;;;;23.30;12.30;;;-1.30;99.90;;;;;;5052911;28;20200;-62
2022/03/03 02:15:32;;;;;;;21.67;11.27;;;-1.30;99.90;;;;;;5054070;28;20677;-62
2022/03/03 02:17:58;;;;;;;21.97;11.33;;;-1.30;99.90;;;;;;5055430;28;20200;-62
2022/03/03 02:20:26;;;;;;;19.93;10.73;;;-1.30;99.90;;;;;;5055212;28;20243;-62
2022/03/03 02:22:53;;;;;;;19.37;10.80;;;-1.20;99.90;;;;;;5054163;28;20280;-62
2022/03/03 02:25:19;;;;;;;19.67;11.27;;;-1.20;99.90;;;;;;5062526;28;20188;-62
2022/03/03 02:27:46;;;;;;;21.57;10.87;;;-1.20;99.90;;;;;;5054762;28;20177;-62
2022/03/03 02:30:13;;;;;;;25.33;10.83;;;-1.20;99.90;;;;;;5055037;28;20276;-61
2022/03/03 02:32:39;;;;;;;17.63;10.33;;;-1.30;99.90;;;;;;5054653;28;20208;-62
2022/03/03 02:35:06;;;;;;;19.80;10.90;;;-1.30;99.90;;;;;;5054295;28;20213;-62
2022/03/03 02:37:43;;;;;;;22.80;10.30;;;-1.30;99.90;;;;;;5054128;28;20193;-62
2022/03/03 02:40:11;;;;;;;22.50;11.07;;;-1.30;99.90;;;;;;5051106;28;20647;-62
2022/03/03 02:42:37;;;;;;;19.30;10.07;;;-1.40;99.90;;;;;;5053459;28;20182;-62
2022/03/03 02:45:04;;;;;;;18.90;11.10;;;-1.40;99.90;;;;;;5053704;28;20189;-62
2022/03/03 02:47:30;;;;;;;22.53;10.70;;;-1.40;99.90;;;;;;5054164;28;20196;-62
2022/03/03 02:49:56;;;;;;;21.02;11.18;;;-1.40;99.90;;;;;;5047930;28;20178;-62
2022/03/03 02:52:22;;;;;;;20.37;11.07;;;-1.40;99.90;;;;;;5039610;28;20198;-62
2022/03/03 02:54:47;;;;;;;23.77;10.93;;;-1.40;99.90;;;;;;5040573;28;20196;-62
2022/03/03 02:59:57;;;;;;;23.03;11.50;;;-1.40;99.90;;;;;;5048315;28;20216;-63
2022/03/03 03:02:23;;;;;;;23.33;11.67;;;-1.40;99.90;;;;;;5048578;28;20213;-62
2022/03/03 03:04:48;;;;;;;29.70;13.93;;;-1.40;99.90;;;;;;5050667;28;20225;-62
2022/03/03 03:07:14;;;;;;;32.03;14.17;;;-1.30;99.90;;;;;;5050124;28;20177;-62
2022/03/03 03:09:40;;;;;;;43.57;17.53;;;-1.30;99.90;;;;;;5042266;28;20205;-62
2022/03/03 03:12:06;;;;;;;46.43;18.17;;;-1.30;99.90;;;;;;5037528;28;20186;-62
2022/03/03 03:14:31;;;;;;;46.70;17.07;;;-1.30;99.90;;;;;;5050991;28;20185;-62
2022/03/03 03:16:57;;;;;;;43.70;17.70;;;-1.30;99.90;;;;;;5039735;28;20256;-62
2022/03/03 03:19:22;;;;;;;37.77;15.50;;;-1.30;99.90;;;;;;5046391;28;20182;-62
2022/03/03 03:21:48;;;;;;;33.13;14.80;;;-1.30;99.90;;;;;;5053983;28;20186;-62
2022/03/03 03:24:14;;;;;;;38.30;16.13;;;-1.30;99.90;;;;;;5052725;28;20661;-62
2022/03/03 03:26:40;;;;;;;31.03;15.33;;;-1.30;99.90;;;;;;5059813;28;20264;-62
2022/03/03 03:29:05;;;;;;;35.77;15.20;;;-1.30;99.90;;;;;;5053660;28;20177;-62
2022/03/03 03:31:31;;;;;;;28.90;14.60;;;-1.30;99.90;;;;;;5053555;28;20568;-62
2022/03/03 03:33:57;;;;;;;33.73;15.53;;;-1.30;99.90;;;;;;5053875;28;20590;-62
2022/03/03 03:36:22;;;;;;;37.53;16.57;;;-1.30;99.90;;;;;;5053121;28;20217;-62
2022/03/03 03:38:48;;;;;;;32.33;15.50;;;-1.30;99.90;;;;;;5053156;28;20661;-62
2022/03/03 03:41:14;;;;;;;31.90;14.63;;;-1.30;99.90;;;;;;5053707;28;20169;-62
2022/03/03 03:43:40;;;;;;;28.03;14.63;;;-1.30;99.90;;;;;;5053197;28;20178;-62
2022/03/03 03:46:06;;;;;;;33.73;14.63;;;-1.30;99.90;;;;;;5053405;28;20257;-62
2022/03/03 03:48:31;;;;;;;32.70;13.93;;;-1.40;99.90;;;;;;5053518;28;20280;-62
2022/03/03 03:50:57;;;;;;;29.10;14.23;;;-1.40;99.90;;;;;;5053251;28;20698;-62
2022/03/03 03:53:23;;;;;;;29.40;13.47;;;-1.40;99.90;;;;;;5053113;28;20193;-62
2022/03/03 03:55:50;;;;;;;33.73;13.90;;;-1.40;99.90;;;;;;5053067;28;20213;-62
2022/03/03 03:58:16;;;;;;;31.93;14.50;;;-1.50;99.90;;;;;;5052442;28;20264;-62
2022/03/03 04:00:42;;;;;;;64.10;24.00;;;-1.50;99.90;;;;;;5051811;28;20308;-62
2022/03/03 04:03:07;;;;;;;55.70;20.73;;;-1.50;99.90;;;;;;5052794;28;20205;-62
2022/03/03 04:05:33;;;;;;;43.83;19.20;;;-1.50;99.90;;;;;;5053085;28;20228;-62
2022/03/03 04:07:58;;;;;;;39.83;18.40;;;-1.50;99.90;;;;;;5052740;28;20664;-62
2022/03/03 04:10:24;;;;;;;42.10;17.67;;;-1.50;99.90;;;;;;5053043;28;20180;-62
2022/03/03 04:12:50;;;;;;;39.93;17.17;;;-1.50;99.90;;;;;;5051221;28;20182;-62
2022/03/03 04:15:16;;;;;;;42.10;17.60;;;-1.50;99.90;;;;;;5052771;28;20201;-62
2022/03/03 04:17:42;;;;;;;41.87;17.47;;;-1.60;99.90;;;;;;5050752;28;20181;-62
2022/03/03 04:20:08;;;;;;;47.80;17.83;;;-1.60;99.90;;;;;;5052257;28;20173;-62
2022/03/03 04:22:34;;;;;;;47.80;17.67;;;-1.60;99.90;;;;;;5051608;28;20285;-62
2022/03/03 04:25:00;;;;;;;31.33;15.13;;;-1.60;99.90;;;;;;5059053;28;20181;-62
2022/03/03 04:27:26;;;;;;;35.63;14.93;;;-1.70;99.90;;;;;;5055477;28;20200;-63
2022/03/03 04:29:52;;;;;;;26.97;13.20;;;-1.70;99.90;;;;;;5052206;28;20641;-62
2022/03/03 04:32:18;;;;;;;24.93;12.57;;;-1.70;99.90;;;;;;5052028;28;20181;-62
2022/03/03 04:34:43;;;;;;;30.60;13.70;;;-1.80;99.90;;;;;;5052375;28;20184;-62
2022/03/03 04:37:09;;;;;;;30.03;13.07;;;-1.90;99.90;;;;;;5052133;28;20205;-62
2022/03/03 04:39:34;;;;;;;26.20;12.80;;;-1.90;99.90;;;;;;5052547;28;20206;-62
2022/03/03 04:42:00;;;;;;;28.27;12.87;;;-2.00;99.90;;;;;;5052234;28;20200;-61
2022/03/03 04:44:26;;;;;;;25.83;12.67;;;-2.00;99.90;;;;;;5051787;28;20182;-62
2022/03/03 04:46:53;;;;;;;25.63;13.23;;;-2.00;99.90;;;;;;5051803;28;20239;-61
2022/03/03 04:49:18;;;;;;;26.67;12.40;;;-2.00;99.90;;;;;;5052290;28;20174;-61
2022/03/03 04:51:44;;;;;;;25.43;13.27;;;-1.90;99.90;;;;;;5052209;28;20659;-61
2022/03/03 04:54:10;;;;;;;27.17;13.20;;;-2.00;99.90;;;;;;5053618;28;20183;-61
2022/03/03 04:56:37;;;;;;;27.80;13.80;;;-1.90;99.90;;;;;;5056852;28;20217;-60
2022/03/03 04:59:03;;;;;;;24.07;12.70;;;-1.90;99.90;;;;;;5051861;28;20185;-60
2022/03/03 05:01:29;;;;;;;23.90;11.70;;;-2.00;99.90;;;;;;5052810;28;20184;-60
2022/03/03 05:03:54;;;;;;;24.57;12.10;;;-2.00;99.90;;;;;;5051860;28;20225;-61
2022/03/03 05:06:20;;;;;;;20.53;11.30;;;-2.00;99.90;;;;;;5050736;28;20518;-61
2022/03/03 05:08:45;;;;;;;21.20;11.27;;;-2.00;99.90;;;;;;5051785;28;20268;-63
2022/03/03 05:11:11;;;;;;;22.77;11.80;;;-2.00;99.90;;;;;;5052082;28;20177;-63
2022/03/03 05:13:37;;;;;;;21.50;11.30;;;-2.10;99.90;;;;;;5052068;28;20203;-61
2022/03/03 05:16:03;;;;;;;23.53;12.10;;;-2.10;99.90;;;;;;5051405;28;20220;-62
2022/03/03 05:18:30;;;;;;;23.97;10.90;;;-2.10;99.90;;;;;;5051226;28;20178;-60
2022/03/03 05:20:56;;;;;;;19.23;10.67;;;-2.10;99.90;;;;;;5051719;28;20185;-64
2022/03/03 05:23:22;;;;;;;28.40;12.20;;;-2.10;99.90;;;;;;5051390;28;20178;-64
2022/03/03 05:25:47;;;;;;;21.43;11.60;;;-2.20;99.90;;;;;;5064862;28;20192;-61
2022/03/03 05:28:13;;;;;;;28.17;12.37;;;-2.20;99.90;;;;;;5052515;28;20170;-61
2022/03/03 05:30:39;;;;;;;55.17;21.70;;;-2.20;99.90;;;;;;5051509;28;20188;-65
2022/03/03 05:33:04;;;;;;;106.37;32.53;;;-2.20;99.90;;;;;;5051195;28;20185;-65
2022/03/03 05:35:30;;;;;;;90.90;30.17;;;-2.20;99.90;;;;;;5051595;28;20270;-65
2022/03/03 05:37:55;;;;;;;72.90;26.80;;;-2.20;99.90;;;;;;5052018;28;20189;-65
2022/03/03 05:40:21;;;;;;;68.50;25.57;;;-2.20;99.90;;;;;;5051824;28;20234;-65
2022/03/03 05:42:47;;;;;;;44.47;19.87;;;-2.20;99.90;;;;;;5051957;28;20220;-65
2022/03/03 05:45:13;;;;;;;31.17;14.37;;;-2.20;99.90;;;;;;5051779;28;20174;-65
2022/03/03 05:47:40;;;;;;;25.97;12.60;;;-2.20;99.90;;;;;;5053011;28;20186;-65
2022/03/03 05:50:06;;;;;;;26.80;12.83;;;-2.20;99.90;;;;;;5055678;28;20282;-65
2022/03/03 05:52:32;;;;;;;30.60;14.20;;;-2.20;99.90;;;;;;5055869;28;20247;-65
2022/03/03 05:54:58;;;;;;;28.43;13.60;;;-2.20;99.90;;;;;;5055653;28;20580;-65
2022/03/03 05:57:35;;;;;;;23.07;12.73;;;-2.10;99.90;;;;;;5055907;28;20563;-65
2022/03/03 06:00:15;;;;;;;24.57;11.97;;;-2.10;99.90;;;;;;5055658;28;20184;-65
2022/03/03 06:02:52;;;;;;;26.43;12.13;;;-2.10;99.90;;;;;;5055605;28;20215;-65
2022/03/03 06:05:25;;;;;;;23.53;12.17;;;-2.10;99.90;;;;;;5055593;28;20537;-65
2022/03/03 06:07:54;;;;;;;24.50;11.73;;;-2.10;99.90;;;;;;5055624;28;20185;-65
2022/03/03 06:10:24;;;;;;;21.83;12.37;;;-2.10;99.90;;;;;;5055510;28;20262;-65
2022/03/03 06:12:58;;;;;;;26.73;12.50;;;-2.00;99.90;;;;;;5055972;28;20648;-65
2022/03/03 06:15:24;;;;;;;24.67;13.23;;;-2.00;99.90;;;;;;5055325;28;20216;-65
2022/03/03 06:17:49;;;;;;;25.20;14.10;;;-2.00;99.90;;;;;;5055597;28;20178;-65
2022/03/03 06:20:18;;;;;;;28.00;13.63;;;-2.00;99.90;;;;;;5055198;28;20266;-65
2022/03/03 06:22:43;;;;;;;35.77;15.33;;;-2.00;99.90;;;;;;5055028;28;20737;-65
2022/03/03 06:25:09;;;;;;;32.07;15.03;;;-2.00;99.90;;;;;;5063221;28;20260;-65
2022/03/03 06:27:35;;;;;;;37.67;15.10;;;-2.00;99.90;;;;;;5071830;28;20643;-65
2022/03/03 06:30:00;;;;;;;32.73;15.57;;;-1.90;99.90;;;;;;5055301;28;20180;-65
2022/03/03 06:32:26;;;;;;;33.37;15.17;;;-1.90;99.90;;;;;;5055057;28;20338;-65
2022/03/03 06:34:52;;;;;;;34.83;14.73;;;-1.90;99.90;;;;;;5055438;28;20177;-65
2022/03/03 06:37:17;;;;;;;39.43;16.50;;;-1.80;99.90;;;;;;5054920;28;20754;-65
2022/03/03 06:39:43;;;;;;;38.23;15.90;;;-1.80;99.90;;;;;;5055154;28;20600;-65
2022/03/03 06:42:08;;;;;;;36.07;15.20;;;-1.70;99.90;;;;;;5054979;28;20186;-65
2022/03/03 06:44:34;;;;;;;28.53;15.30;;;-1.60;99.90;;;;;;5054883;28;20203;-65
2022/03/03 06:47:01;;;;;;;28.57;14.37;;;-1.60;99.90;;;;;;5055052;28;20181;-65
2022/03/03 06:49:27;;;;;;;35.57;16.53;;;-1.50;99.90;;;;;;5054732;28;20180;-65
2022/03/03 06:51:56;;;;;;;36.80;17.37;;;-1.50;99.90;;;;;;5054951;28;20181;-65
2022/03/03 06:54:23;;;;;;;28.60;14.17;;;-1.40;99.90;;;;;;5054629;28;20212;-64
2022/03/03 06:56:50;;;;;;;28.17;13.40;;;-1.40;99.90;;;;;;5054680;28;20209;-64
2022/03/03 06:59:18;;;;;;;23.80;13.53;;;-1.30;99.90;;;;;;5054478;28;20170;-65
2022/03/03 07:01:46;;;;;;;24.20;12.73;;;-1.30;99.90;;;;;;5054730;28;20180;-65
2022/03/03 07:04:13;;;;;;;26.17;13.77;;;-1.20;99.90;;;;;;5054271;28;20221;-65
2022/03/03 07:06:40;;;;;;;22.83;12.83;;;-1.00;99.90;;;;;;5054748;28;20180;-65
2022/03/03 07:09:08;;;;;;;27.57;13.27;;;-0.90;99.90;;;;;;5054349;28;20194;-64
2022/03/03 07:11:34;;;;;;;25.63;13.80;;;-0.70;99.90;;;;;;5054190;28;20546;-65
2022/03/03 07:14:00;;;;;;;27.08;15.15;;;-0.40;99.90;;;;;;5054500;28;20655;-65
2022/03/03 07:16:41;;;;;;;30.20;14.37;;;-0.10;99.90;;;;;;5054378;28;20221;-65
2022/03/03 07:19:16;;;;;;;27.05;14.35;;;0.30;99.90;;;;;;5034535;28;20178;-65
2022/03/03 07:21:42;;;;;;;24.92;11.93;;;0.70;99.90;;;;;;5034847;28;20539;-65
2022/03/03 07:24:32;;;;;;;23.05;12.57;;;1.10;99.90;;;;;;5037242;28;20188;-64
2022/03/03 07:27:04;;;;;;;22.67;11.48;;;1.60;99.90;;;;;;5039116;28;20235;-65
2022/03/03 07:29:33;;;;;;;23.33;11.73;;;2.10;99.90;;;;;;5054325;28;20216;-64
2022/03/03 07:32:05;;;;;;;19.02;11.48;;;2.50;99.90;;;;;;5053967;28;20201;-65
2022/03/03 07:34:36;;;;;;;22.85;12.02;;;2.90;99.90;;;;;;5052875;28;20173;-65
2022/03/03 07:37:08;;;;;;;26.17;12.20;;;3.30;99.90;;;;;;5053862;28;20547;-65
2022/03/03 07:39:43;;;;;;;24.45;11.70;;;3.70;99.90;;;;;;5054003;28;20182;-65
2022/03/03 07:42:14;;;;;;;23.35;11.82;;;4.20;99.90;;;;;;5053562;28;20205;-65
2022/03/03 07:44:40;;;;;;;25.67;12.73;;;4.60;99.90;;;;;;5053791;28;20248;-65
2022/03/03 07:47:08;;;;;;;25.50;13.38;;;5.00;99.90;;;;;;5053656;28;20261;-65
2022/03/03 07:49:34;;;;;;;21.88;12.02;;;5.50;98.90;;;;;;5053708;28;20173;-65
2022/03/03 07:52:03;;;;;;;25.17;12.93;;;5.90;97.60;;;;;;5053594;28;20268;-65
2022/03/03 07:54:28;;;;;;;27.83;12.10;;;6.40;96.40;;;;;;5053610;28;20181;-65
2022/03/03 07:56:59;;;;;;;32.25;13.15;;;6.80;95.30;;;;;;5053401;28;20216;-65
2022/03/03 07:59:34;;;;;;;26.65;13.15;;;7.00;94.50;;;;;;5053622;28;20166;-65
2022/03/03 08:02:02;;;;;;;24.25;11.45;;;7.40;93.60;;;;;;5053177;28;20173;-65
2022/03/03 08:04:29;;;;;;;25.10;12.50;;;7.80;92.50;;;;;;5053213;28;20233;-65
2022/03/03 08:07:05;;;;;;;21.98;12.45;;;8.10;91.50;;;;;;5053524;28;20220;-65
2022/03/03 08:09:32;;;;;;;23.23;12.43;;;8.50;90.40;;;;;;5053343;28;20184;-65
2022/03/03 08:12:02;;;;;;;22.25;12.45;;;8.70;89.40;;;;;;5052559;28;20217;-65
2022/03/03 08:14:29;;;;;;;23.85;12.10;;;8.80;87.30;;;;;;5053272;28;20513;-65
2022/03/03 08:16:55;;;;;;;25.52;12.23;;;8.50;85.90;;;;;;5052953;28;20216;-65
2022/03/03 08:19:21;;;;;;;23.10;12.32;;;8.40;86.40;;;;;;5053308;28;20177;-65
2022/03/03 08:21:49;;;;;;;19.23;11.75;;;8.30;86.30;;;;;;5052695;28;20173;-65
2022/03/03 08:24:15;;;;;;;27.13;12.45;;;8.10;86.40;;;;;;5053098;28;20182;-65
2022/03/03 08:26:43;;;;;;;17.85;11.55;;;7.90;86.60;;;;;;5056556;28;20264;-65
2022/03/03 08:29:10;;;;;;;24.13;13.15;;;7.80;86.80;;;;;;5053172;28;20633;-66
2022/03/03 08:31:48;;;;;;;21.67;12.10;;;8.00;86.80;;;;;;5052767;28;20628;-65
2022/03/03 08:34:46;;;;;;;23.15;12.38;;;8.20;87.50;;;;;;5052905;28;20616;-65
2022/03/03 08:37:36;;;;;;;21.40;11.95;;;8.40;86.50;;;;;;5035321;28;20236;-66
2022/03/03 08:40:07;;;;;;;22.80;13.02;;;8.70;85.60;;;;;;5029594;28;20335;-65
2022/03/03 08:42:38;;;;;;;21.27;11.98;;;9.00;83.40;;;;;;5040327;28;20280;-65
2022/03/03 08:45:06;;;;;;;26.05;13.52;;;9.20;81.90;;;;;;5052825;28;20455;-65
2022/03/03 08:47:32;;;;;;;34.25;16.00;;;9.30;82.60;;;;;;5052798;28;20177;-65
2022/03/03 08:50:03;;;;;;;33.53;15.85;;;9.50;81.20;;;;;;5052453;28;20181;-65
2022/03/03 08:52:29;;;;;;;43.70;21.15;;;9.50;79.80;;;;;;5052712;28;20272;-65
2022/03/03 08:54:55;;;;;;;23.90;14.40;;;9.60;80.30;;;;;;5052310;28;20598;-65
2022/03/03 08:57:21;;;;;;;30.27;16.30;;;9.70;79.90;;;;;;5052335;28;20213;-65
2022/03/03 08:59:47;;;;;;;24.67;14.15;;;9.80;77.90;;;;;;5052245;28;20209;-65
2022/03/03 09:02:16;;;;;;;21.35;13.18;;;9.90;78.40;;;;;;5052126;28;20216;-65
2022/03/03 09:04:44;;;;;;;22.83;13.40;;;10.00;76.80;;;;;;5051956;28;20230;-65
2022/03/03 09:07:09;;;;;;;31.00;15.82;;;9.90;77.80;;;;;;5052437;28;20182;-65
2022/03/03 09:09:34;;;;;;;22.45;12.13;;;9.90;77.60;;;;;;5052147;28;20174;-65
2022/03/03 09:12:01;;;;;;;39.85;17.15;;;10.00;75.70;;;;;;5052195;28;20189;-65
2022/03/03 09:14:27;;;;;;;31.67;15.00;;;10.00;76.30;;;;;;5052269;28;20185;-65
2022/03/03 09:16:53;;;;;;;58.22;22.85;;;9.90;76.30;;;;;;5051972;28;20213;-65
2022/03/03 09:19:18;;;;;;;33.92;17.88;;;9.80;76.90;;;;;;5052241;28;20564;-65
2022/03/03 09:21:44;;;;;;;26.70;14.05;;;9.60;76.80;;;;;;5051319;28;20261;-65
2022/03/03 09:24:09;;;;;;;22.10;13.65;;;9.60;78.10;;;;;;5051920;28;20188;-65
2022/03/03 09:26:35;;;;;;;20.60;12.65;;;9.70;78.80;;;;;;5051774;28;20522;-65
2022/03/03 09:29:01;;;;;;;36.38;16.52;;;9.60;78.90;;;;;;5051784;28;20181;-65
2022/03/03 09:31:26;;;;;;;43.25;19.50;;;9.80;78.70;;;;;;5051935;28;20177;-65
2022/03/03 09:33:52;;;;;;;29.40;16.05;;;9.80;78.60;;;;;;5051807;28;20223;-65
2022/03/03 09:36:18;;;;;;;21.38;13.13;;;9.90;77.90;;;;;;5051917;28;20209;-65
2022/03/03 09:38:44;;;;;;;29.10;15.25;;;9.80;76.40;;;;;;5051605;28;20538;-65
2022/03/03 09:41:09;;;;;;;23.08;13.60;;;9.80;76.90;;;;;;5051793;28;20185;-65
2022/03/03 09:43:35;;;;;;;27.15;13.73;;;9.80;77.30;;;;;;5051288;28;20271;-65
2022/03/03 09:46:01;;;;;;;26.30;14.32;;;9.80;77.10;;;;;;5051873;28;20185;-65
2022/03/03 09:48:26;;;;;;;27.95;16.15;;;9.80;76.80;;;;;;5051515;28;20361;-65
2022/03/03 09:50:52;;;;;;;24.85;13.77;;;9.80;79.10;;;;;;5051534;28;20232;-65
2022/03/03 09:53:18;;;;;;;23.75;15.07;;;9.90;79.40;;;;;;5051604;28;20641;-65
2022/03/03 09:55:46;;;;;;;27.75;16.33;;;9.90;77.80;;;;;;5051625;28;20212;-65
2022/03/03 09:58:13;;;;;;;22.58;13.70;;;10.00;77.40;;;;;;5051677;28;20710;-65
2022/03/03 10:00:40;;;;;;;23.05;13.15;;;10.20;76.20;;;;;;5051596;28;20173;-65
2022/03/03 10:03:10;;;;;;;20.50;12.77;;;10.30;75.10;;;;;;5051278;28;20706;-65
2022/03/03 10:05:40;;;;;;;26.08;14.32;;;10.30;73.70;;;;;;5051311;28;20181;-65
2022/03/03 10:08:09;;;;;;;26.20;15.15;;;10.30;75.50;;;;;;5051433;28;20181;-65
2022/03/03 10:10:38;;;;;;;22.70;13.25;;;10.50;74.60;;;;;;5051391;28;20292;-65
2022/03/03 10:13:04;;;;;;;26.98;15.00;;;10.50;73.20;;;;;;5051376;28;20188;-65
2022/03/03 10:15:31;;;;;;;28.13;15.30;;;10.50;73.50;;;;;;5051477;28;20562;-65
2022/03/03 10:18:10;;;;;;;33.38;17.83;;;10.60;73.00;;;;;;5051409;28;20193;-65
2022/03/03 10:20:58;;;;;;;28.45;15.95;;;10.60;73.40;;;;;;5051521;28;20173;-65
2022/03/03 10:23:27;;;;;;;27.67;14.68;;;10.80;72.00;;;;;;5051262;28;20196;-66
2022/03/03 10:25:54;;;;;;;24.65;13.43;;;10.90;71.90;;;;;;5063975;28;20173;-66
2022/03/03 10:28:28;;;;;;;26.13;13.98;;;10.80;72.80;;;;;;5053660;28;20174;-65
2022/03/03 10:31:01;;;;;;;26.55;13.88;;;10.80;72.30;;;;;;5051479;28;20253;-65
2022/03/03 10:33:32;;;;;;;28.17;14.00;;;10.90;73.10;;;;;;5051762;28;20182;-65
2022/03/03 10:36:01;;;;;;;22.17;13.02;;;11.00;72.10;;;;;;5055272;28;20339;-66
2022/03/03 10:38:26;;;;;;;26.48;14.07;;;11.10;71.80;;;;;;5054808;28;20260;-66
2022/03/03 10:40:52;;;;;;;20.92;12.93;;;11.10;69.90;;;;;;5055132;28;20209;-66
2022/03/03 10:43:18;;;;;;;23.38;13.90;;;11.00;71.60;;;;;;5054324;28;20601;-65
2022/03/03 10:45:59;;;;;;;22.35;13.23;;;11.00;72.10;;;;;;5054956;28;20201;-66
2022/03/03 10:48:26;;;;;;;20.67;13.32;;;11.10;71.80;;;;;;5054800;28;20263;-66
2022/03/03 10:50:58;;;;;;;21.60;13.10;;;11.00;71.50;;;;;;5054836;28;20181;-66
2022/03/03 10:53:25;;;;;;;20.55;13.15;;;11.10;70.30;;;;;;5054715;28;20190;-66
2022/03/03 10:56:00;;;;;;;22.83;13.98;;;11.30;69.80;;;;;;5054715;28;20202;-66
2022/03/03 10:58:47;;;;;;;21.35;12.98;;;11.40;69.00;;;;;;5054452;28;20193;-66
2022/03/03 11:01:15;;;;;;;23.35;13.45;;;11.50;69.50;;;;;;5054751;28;20204;-66
2022/03/03 11:03:44;;;;;;;21.38;12.88;;;11.70;68.40;;;;;;5054145;28;20221;-66
2022/03/03 11:06:10;;;;;;;22.58;13.52;;;11.90;68.20;;;;;;5054677;28;20193;-66
2022/03/03 11:08:36;;;;;;;25.50;13.80;;;11.90;67.50;;;;;;5054173;28;20181;-65
2022/03/03 11:11:03;;;;;;;21.88;13.98;;;11.80;68.10;;;;;;5054643;28;20170;-66
2022/03/03 11:13:29;;;;;;;21.27;13.07;;;11.80;66.90;;;;;;5054211;28;20196;-66
2022/03/03 11:15:56;;;;;;;21.73;13.82;;;11.80;66.30;;;;;;5054423;28;20583;-65
2022/03/03 11:18:23;;;;;;;25.33;14.45;;;11.50;67.30;;;;;;5054224;28;20186;-65
2022/03/03 11:20:49;;;;;;;25.70;14.57;;;11.00;66.30;;;;;;5054391;28;20177;-66
2022/03/03 11:23:14;;;;;;;24.15;14.35;;;11.10;68.50;;;;;;5054060;28;20644;-66
2022/03/03 11:25:41;;;;;;;23.92;13.73;;;11.40;69.20;;;;;;5066231;28;20173;-66
2022/03/03 11:28:09;;;;;;;21.33;13.70;;;11.60;67.90;;;;;;5054567;28;20204;-65
2022/03/03 11:30:35;;;;;;;22.80;13.70;;;11.60;69.30;;;;;;5053861;28;20178;-65
2022/03/03 11:33:27;;;;;;;26.92;14.25;;;11.80;67.80;;;;;;5054012;28;20189;-65
2022/03/03 11:35:56;;;;;;;24.17;13.48;;;12.20;67.90;;;;;;5054237;28;20249;-66
2022/03/03 11:38:24;;;;;;;22.77;14.25;;;12.50;66.10;;;;;;5053770;28;20209;-65
2022/03/03 11:40:54;;;;;;;22.40;13.88;;;12.60;66.40;;;;;;5054057;28;20189;-66
2022/03/03 11:43:20;;;;;;;21.90;13.48;;;12.70;66.10;;;;;;5053923;28;20222;-66
2022/03/03 11:45:54;;;;;;;27.80;15.32;;;12.80;64.90;;;;;;5052975;28;20189;-66
2022/03/03 11:48:22;;;;;;;25.05;14.95;;;12.80;64.60;;;;;;5053809;28;20185;-66
2022/03/03 11:50:49;;;;;;;24.92;14.43;;;12.80;64.30;;;;;;5053891;28;20173;-66
2022/03/03 11:53:25;;;;;;;24.08;14.85;;;12.80;64.10;;;;;;5053528;28;20713;-66
2022/03/03 11:55:56;;;;;;;23.83;14.60;;;12.90;64.80;;;;;;5053981;28;20209;-66
2022/03/03 11:58:36;;;;;;;25.15;13.43;;;13.00;64.00;;;;;;5053595;28;20178;-66
2022/03/03 12:01:03;;;;;;;21.45;13.70;;;13.00;63.50;;;;;;5052407;28;20209;-66
2022/03/03 12:03:29;;;;;;;21.65;13.70;;;12.90;62.90;;;;;;5053166;28;20221;-66
2022/03/03 12:06:04;;;;;;;26.17;16.00;;;12.70;62.80;;;;;;5053519;28;20184;-66
2022/03/03 12:08:37;;;;;;;24.17;13.38;;;12.60;63.10;;;;;;5053185;28;20185;-66
2022/03/03 12:11:15;;;;;;;21.45;14.05;;;12.60;63.00;;;;;;5053236;28;20186;-65
2022/03/03 12:13:41;;;;;;;23.48;14.15;;;12.50;62.90;;;;;;5053093;28;20176;-66
2022/03/03 12:16:26;;;;;;;23.17;13.35;;;12.40;63.50;;;;;;5053035;28;20253;-66
2022/03/03 12:18:54;;;;;;;20.80;14.38;;;12.40;63.60;;;;;;5053182;28;20662;-66
2022/03/03 12:21:36;;;;;;;23.38;13.48;;;12.30;63.10;;;;;;5053118;28;20288;-66
2022/03/03 12:24:14;;;;;;;19.83;13.13;;;12.20;62.40;;;;;;5052897;28;20178;-66
2022/03/03 12:26:54;;;;;;;23.00;13.65;;;12.00;62.10;;;;;;5036791;28;20175;-66
2022/03/03 12:29:39;;;;;;;22.40;13.55;;;11.90;62.10;;;;;;5052859;28;20173;-66
2022/03/03 12:32:26;;;;;;;24.73;13.55;;;11.90;62.40;;;;;;5052888;28;20201;-66
2022/03/03 12:34:57;;;;;;;19.15;12.50;;;12.00;62.90;;;;;;5052923;28;20178;-66